createdAt,value
2022-08-04T00:00:12.015Z,56.56
2022-08-04T00:01:12.025Z,56.88
2022-08-04T00:02:12.997Z,53.50
2022-08-04T00:03:11.986Z,58.01
2022-08-04T00:04:11.994Z,59.46
2022-08-04T00:05:11.966Z,54.46
2022-08-04T00:06:11.955Z,57.52
2022-08-04T00:07:11.952Z,55.91
2022-08-04T00:08:11.977Z,58.01
2022-08-04T00:09:11.945Z,59.14
2022-08-04T00:10:11.915Z,54.46
2022-08-04T00:11:15.307Z,53.01
2022-08-04T00:12:11.898Z,59.46
2022-08-04T00:13:11.884Z,57.69
2022-08-04T00:14:12.894Z,57.69
2022-08-04T00:15:14.976Z,50.11
2022-08-04T00:16:11.861Z,50.27
2022-08-04T00:17:11.849Z,51.56
2022-08-04T00:18:11.851Z,53.50
2022-08-04T00:19:11.880Z,51.40
2022-08-04T00:20:11.816Z,56.07
2022-08-04T00:21:11.811Z,51.08
2022-08-04T00:22:11.802Z,58.17
2022-08-04T00:23:11.790Z,58.01
2022-08-04T00:24:12.983Z,56.24
2022-08-04T00:25:12.771Z,59.46
2022-08-04T00:26:11.759Z,57.04
2022-08-04T00:27:11.750Z,57.36
2022-08-04T00:28:11.742Z,51.56
2022-08-04T00:29:11.734Z,53.66
2022-08-04T00:30:11.739Z,57.36
2022-08-04T00:31:11.711Z,55.43
2022-08-04T00:32:11.703Z,56.88
2022-08-04T00:33:11.691Z,55.91
2022-08-04T00:34:11.767Z,55.11
2022-08-04T00:35:11.684Z,57.04
2022-08-04T00:36:43.556Z,54.79
2022-08-04T00:37:11.653Z,58.49
2022-08-04T00:38:11.640Z,58.97
2022-08-04T00:39:11.711Z,56.24
2022-08-04T00:40:11.642Z,58.49
2022-08-04T00:41:11.612Z,56.40
2022-08-04T00:42:11.603Z,54.62
2022-08-04T00:43:11.591Z,59.62
2022-08-04T00:44:11.578Z,55.91
2022-08-04T00:45:12.604Z,58.97
2022-08-04T00:46:16.102Z,52.37
2022-08-04T00:47:12.635Z,52.21
2022-08-04T00:48:11.539Z,56.88
2022-08-04T00:49:11.534Z,57.04
2022-08-04T00:50:11.522Z,55.11
2022-08-04T00:51:11.527Z,56.40
2022-08-04T00:52:31.468Z,56.40
2022-08-04T00:53:12.506Z,57.85
2022-08-04T00:54:11.488Z,58.01
2022-08-04T00:55:11.472Z,59.14
2022-08-04T00:56:11.479Z,58.33
2022-08-04T00:57:30.084Z,56.88
2022-08-04T00:58:12.442Z,53.66
2022-08-04T00:59:11.431Z,54.46
2022-08-04T01:00:11.430Z,57.20
2022-08-04T01:01:11.466Z,55.11
2022-08-04T01:02:11.402Z,54.46
2022-08-04T01:03:11.405Z,58.33
2022-08-04T01:04:11.381Z,58.97
2022-08-04T01:05:11.374Z,58.01
2022-08-04T01:06:11.443Z,58.17
2022-08-04T01:07:11.346Z,56.07
2022-08-04T01:08:11.340Z,56.40
2022-08-04T01:09:11.334Z,57.52
2022-08-04T01:10:17.281Z,52.37
2022-08-04T01:11:13.368Z,56.40
2022-08-04T01:12:11.304Z,56.72
2022-08-04T01:13:15.435Z,57.36
2022-08-04T01:14:11.284Z,56.88
2022-08-04T01:15:11.278Z,60.42
2022-08-04T01:16:11.273Z,58.97
2022-08-04T01:17:12.906Z,56.88
2022-08-04T01:18:11.241Z,56.40
2022-08-04T01:19:11.240Z,53.17
2022-08-04T01:20:11.220Z,53.50
2022-08-04T01:21:11.222Z,54.79
2022-08-04T01:22:11.222Z,57.69
2022-08-04T01:23:11.194Z,55.11
2022-08-04T01:24:11.181Z,59.14
2022-08-04T01:25:11.168Z,58.49
2022-08-04T01:26:42.345Z,55.11
2022-08-04T01:27:12.165Z,59.46
2022-08-04T01:28:11.142Z,56.72
2022-08-04T01:29:12.966Z,58.01
2022-08-04T01:30:11.118Z,54.14
2022-08-04T01:31:13.073Z,56.40
2022-08-04T01:32:11.119Z,57.85
2022-08-04T01:33:11.093Z,59.94
2022-08-04T01:34:11.084Z,54.46
2022-08-04T01:35:11.092Z,56.88
2022-08-04T01:36:12.090Z,54.79
2022-08-04T01:37:11.067Z,57.52
2022-08-04T01:38:20.118Z,59.46
2022-08-04T01:39:12.089Z,59.46
2022-08-04T01:40:11.021Z,58.49
2022-08-04T01:41:11.011Z,58.33
2022-08-04T01:42:11.017Z,58.01
2022-08-04T01:43:10.990Z,54.95
2022-08-04T01:44:10.978Z,58.81
2022-08-04T01:45:10.971Z,56.88
2022-08-04T01:46:10.962Z,58.81
2022-08-04T01:47:10.966Z,59.46
2022-08-04T01:48:10.940Z,57.20
2022-08-04T01:49:10.931Z,58.81
2022-08-04T01:50:10.920Z,58.33
2022-08-04T01:51:10.911Z,57.85
2022-08-04T01:52:10.915Z,61.07
2022-08-04T01:53:10.891Z,54.46
2022-08-04T01:54:10.884Z,55.43
2022-08-04T01:55:10.877Z,58.33
2022-08-04T01:56:10.857Z,59.94
2022-08-04T01:57:37.192Z,55.75
2022-08-04T01:58:11.839Z,60.10
2022-08-04T01:59:10.833Z,56.72
2022-08-04T02:00:10.826Z,58.49
2022-08-04T02:01:10.850Z,58.01
2022-08-04T02:02:10.922Z,59.30
2022-08-04T02:03:10.801Z,58.65
2022-08-04T02:04:22.029Z,55.75
2022-08-04T02:05:11.775Z,56.07
2022-08-04T02:06:10.767Z,56.40
2022-08-04T02:07:10.773Z,58.65
2022-08-04T02:08:11.750Z,59.14
2022-08-04T02:09:10.737Z,55.27
2022-08-04T02:10:25.457Z,58.33
2022-08-04T02:11:10.720Z,58.97
2022-08-04T02:12:16.141Z,58.81
2022-08-04T02:13:11.706Z,58.97
2022-08-04T02:14:10.696Z,58.33
2022-08-04T02:15:10.682Z,57.36
2022-08-04T02:16:10.677Z,62.20
2022-08-04T02:17:10.691Z,58.81
2022-08-04T02:18:10.648Z,58.33
2022-08-04T02:19:14.681Z,61.07
2022-08-04T02:20:10.633Z,58.65
2022-08-04T02:21:10.622Z,60.26
2022-08-04T02:22:10.632Z,59.30
2022-08-04T02:23:10.604Z,59.30
2022-08-04T02:24:10.592Z,56.24
2022-08-04T02:25:10.584Z,57.04
2022-08-04T02:26:13.282Z,59.78
2022-08-04T02:27:11.580Z,57.20
2022-08-04T02:28:10.554Z,60.10
2022-08-04T02:29:10.545Z,60.42
2022-08-04T02:30:10.536Z,58.33
2022-08-04T02:31:10.539Z,57.85
2022-08-04T02:32:10.546Z,60.59
2022-08-04T02:33:10.507Z,57.85
2022-08-04T02:34:10.500Z,57.20
2022-08-04T02:35:10.489Z,55.27
2022-08-04T02:36:10.476Z,61.71
2022-08-04T02:37:11.959Z,58.65
2022-08-04T02:38:10.461Z,59.30
2022-08-04T02:39:10.481Z,56.88
2022-08-04T02:40:10.434Z,59.78
2022-08-04T02:41:11.435Z,59.30
2022-08-04T02:42:10.418Z,57.69
2022-08-04T02:43:10.422Z,58.17
2022-08-04T02:44:10.444Z,55.75
2022-08-04T02:45:10.399Z,58.49
2022-08-04T02:46:17.976Z,60.59
2022-08-04T02:47:11.373Z,58.49
2022-08-04T02:48:31.352Z,58.81
2022-08-04T02:49:11.350Z,57.85
2022-08-04T02:50:10.339Z,60.59
2022-08-04T02:51:10.333Z,60.59
2022-08-04T02:52:10.318Z,60.10
2022-08-04T02:53:10.358Z,59.94
2022-08-04T02:54:10.303Z,58.17
2022-08-04T02:55:10.301Z,60.26
2022-08-04T02:56:10.278Z,59.94
2022-08-04T02:57:10.271Z,58.33
2022-08-04T02:58:10.289Z,53.33
2022-08-04T02:59:10.251Z,58.97
2022-08-04T03:00:10.245Z,55.43
2022-08-04T03:01:10.300Z,56.72
2022-08-04T03:02:10.224Z,61.07
2022-08-04T03:03:10.212Z,57.85
2022-08-04T03:04:10.222Z,57.20
2022-08-04T03:05:10.193Z,58.81
2022-08-04T03:06:10.644Z,58.01
2022-08-04T03:07:15.624Z,57.20
2022-08-04T03:08:10.161Z,60.59
2022-08-04T03:09:10.173Z,61.39
2022-08-04T03:10:10.148Z,57.69
2022-08-04T03:11:10.134Z,58.01
2022-08-04T03:12:10.125Z,59.78
2022-08-04T03:13:10.121Z,64.29
2022-08-04T03:14:10.400Z,59.62
2022-08-04T03:15:10.101Z,60.59
2022-08-04T03:16:10.085Z,57.85
2022-08-04T03:17:10.077Z,57.52
2022-08-04T03:18:10.068Z,61.23
2022-08-04T03:19:10.123Z,60.42
2022-08-04T03:20:10.050Z,63.16
2022-08-04T03:21:10.040Z,63.00
2022-08-04T03:22:10.032Z,64.13
2022-08-04T03:23:14.128Z,63.16
2022-08-04T03:24:11.025Z,59.30
2022-08-04T03:25:09.999Z,62.20
2022-08-04T03:26:09.986Z,58.97
2022-08-04T03:27:09.974Z,62.36
2022-08-04T03:28:09.967Z,63.00
2022-08-04T03:29:09.996Z,60.59
2022-08-04T03:30:09.946Z,64.78
2022-08-04T03:31:09.936Z,60.75
2022-08-04T03:32:09.931Z,60.75
2022-08-04T03:33:09.921Z,63.00
2022-08-04T03:34:09.907Z,60.75
2022-08-04T03:35:09.910Z,59.30
2022-08-04T03:36:09.888Z,60.59
2022-08-04T03:37:09.883Z,60.91
2022-08-04T03:38:09.866Z,62.36
2022-08-04T03:39:09.876Z,62.52
2022-08-04T03:40:10.860Z,65.26
2022-08-04T03:41:09.835Z,61.23
2022-08-04T03:42:13.138Z,60.91
2022-08-04T03:43:57.154Z,63.33
2022-08-04T03:44:10.804Z,60.42
2022-08-04T03:45:20.509Z,62.84
2022-08-04T03:46:10.783Z,62.84
2022-08-04T03:47:09.777Z,61.23
2022-08-04T03:48:09.767Z,61.55
2022-08-04T03:49:09.756Z,64.13
2022-08-04T03:50:09.777Z,60.59
2022-08-04T03:51:09.732Z,59.30
2022-08-04T03:52:10.727Z,62.84
2022-08-04T03:53:09.717Z,58.81
2022-08-04T03:54:09.708Z,60.75
2022-08-04T03:55:09.702Z,62.84
2022-08-04T03:56:09.702Z,62.20
2022-08-04T03:57:09.675Z,59.62
2022-08-04T03:58:09.670Z,61.07
2022-08-04T03:59:09.660Z,60.75
2022-08-04T04:00:09.647Z,58.97
2022-08-04T04:01:10.982Z,62.52
2022-08-04T04:02:09.673Z,61.07
2022-08-04T04:03:09.619Z,59.46
2022-08-04T04:04:09.606Z,59.30
2022-08-04T04:05:09.590Z,61.07
2022-08-04T04:06:12.354Z,63.16
2022-08-04T04:07:09.580Z,59.78
2022-08-04T04:08:12.527Z,60.59
2022-08-04T04:09:14.299Z,62.52
2022-08-04T04:10:10.550Z,63.16
2022-08-04T04:11:09.579Z,60.75
2022-08-04T04:12:09.533Z,64.61
2022-08-04T04:13:09.520Z,63.16
2022-08-04T04:14:09.509Z,61.23
2022-08-04T04:15:09.500Z,63.65
2022-08-04T04:16:10.096Z,60.91
2022-08-04T04:17:09.480Z,62.36
2022-08-04T04:18:09.467Z,64.13
2022-08-04T04:19:09.460Z,61.55
2022-08-04T04:20:09.450Z,61.55
2022-08-04T04:21:09.448Z,61.07
2022-08-04T04:22:09.459Z,61.71
2022-08-04T04:23:10.277Z,61.87
2022-08-04T04:24:09.410Z,63.00
2022-08-04T04:25:09.407Z,65.42
2022-08-04T04:26:09.389Z,64.94
2022-08-04T04:27:09.390Z,64.29
2022-08-04T04:28:45.103Z,63.49
2022-08-04T04:29:10.364Z,63.65
2022-08-04T04:30:09.354Z,65.10
2022-08-04T04:31:09.343Z,65.42
2022-08-04T04:32:09.345Z,65.10
2022-08-04T04:33:09.320Z,60.10
2022-08-04T04:34:09.308Z,67.84
2022-08-04T04:35:09.296Z,61.07
2022-08-04T04:36:09.288Z,63.97
2022-08-04T04:37:09.294Z,61.55
2022-08-04T04:38:09.271Z,61.55
2022-08-04T04:39:09.361Z,63.00
2022-08-04T04:40:09.254Z,61.23
2022-08-04T04:41:09.237Z,64.13
2022-08-04T04:42:09.273Z,63.49
2022-08-04T04:43:09.222Z,64.13
2022-08-04T04:44:09.211Z,64.29
2022-08-04T04:45:09.199Z,63.81
2022-08-04T04:46:09.184Z,63.65
2022-08-04T04:47:10.219Z,64.13
2022-08-04T04:48:10.845Z,59.46
2022-08-04T04:49:10.161Z,63.33
2022-08-04T04:50:09.154Z,65.58
2022-08-04T04:51:09.141Z,61.39
2022-08-04T04:52:09.126Z,64.13
2022-08-04T04:53:09.132Z,65.58
2022-08-04T04:54:09.109Z,64.94
2022-08-04T04:55:09.108Z,60.59
2022-08-04T04:56:09.094Z,63.97
2022-08-04T04:57:09.080Z,64.13
2022-08-04T04:58:09.085Z,60.59
2022-08-04T04:59:09.058Z,61.87
2022-08-04T05:00:09.052Z,60.42
2022-08-04T05:01:09.042Z,60.75
2022-08-04T05:02:09.027Z,61.23
2022-08-04T05:03:09.526Z,59.62
2022-08-04T05:04:10.007Z,59.94
2022-08-04T05:05:08.994Z,63.65
2022-08-04T05:06:08.981Z,64.45
2022-08-04T05:07:09.979Z,61.23
2022-08-04T05:08:43.820Z,60.10
2022-08-04T05:09:09.959Z,60.75
2022-08-04T05:10:08.951Z,65.90
2022-08-04T05:11:08.941Z,61.55
2022-08-04T05:12:39.343Z,62.20
2022-08-04T05:14:36.039Z,61.55
2022-08-04T05:14:36.728Z,62.04
2022-08-04T05:15:09.902Z,62.68
2022-08-04T05:16:08.896Z,62.68
2022-08-04T05:17:08.886Z,61.39
2022-08-04T05:18:08.914Z,61.55
2022-08-04T05:19:08.866Z,62.84
2022-08-04T05:20:08.851Z,60.42
2022-08-04T05:21:08.845Z,62.68
2022-08-04T05:22:14.183Z,61.55
2022-08-04T05:23:10.879Z,60.75
2022-08-04T05:24:08.827Z,63.16
2022-08-04T05:25:08.807Z,61.87
2022-08-04T05:26:08.798Z,62.68
2022-08-04T05:27:08.787Z,60.26
2022-08-04T05:28:08.778Z,61.71
2022-08-04T05:29:08.787Z,61.55
2022-08-04T05:30:08.760Z,62.52
2022-08-04T05:31:08.753Z,60.42
2022-08-04T05:32:08.745Z,60.10
2022-08-04T05:33:08.729Z,60.59
2022-08-04T05:34:08.763Z,60.59
2022-08-04T05:35:08.715Z,61.23
2022-08-04T05:36:19.138Z,62.36
2022-08-04T05:37:09.691Z,64.45
2022-08-04T05:38:08.680Z,63.65
2022-08-04T05:39:08.782Z,62.36
2022-08-04T05:40:08.664Z,63.33
2022-08-04T05:41:08.674Z,62.36
2022-08-04T05:42:08.650Z,58.65
2022-08-04T05:43:08.640Z,61.55
2022-08-04T05:44:08.638Z,62.20
2022-08-04T05:45:08.612Z,63.00
2022-08-04T05:46:08.603Z,61.07
2022-08-04T05:47:08.592Z,60.26
2022-08-04T05:48:08.586Z,60.75
2022-08-04T05:49:08.592Z,61.71
2022-08-04T05:50:08.563Z,58.97
2022-08-04T05:51:08.555Z,59.14
2022-08-04T05:52:08.547Z,61.39
2022-08-04T05:53:08.543Z,60.10
2022-08-04T05:54:08.559Z,59.46
2022-08-04T05:55:08.521Z,60.10
2022-08-04T05:56:08.514Z,60.59
2022-08-04T05:57:08.500Z,60.10
2022-08-04T05:58:08.489Z,59.62
2022-08-04T05:59:08.538Z,60.10
2022-08-04T06:00:38.460Z,58.97
2022-08-04T06:01:10.459Z,61.55
2022-08-04T06:02:08.513Z,60.26
2022-08-04T06:03:08.436Z,59.14
2022-08-04T06:04:11.451Z,60.59
2022-08-04T06:05:09.443Z,60.59
2022-08-04T06:06:08.408Z,63.65
2022-08-04T06:07:08.400Z,60.59
2022-08-04T06:08:13.660Z,63.16
2022-08-04T06:09:09.381Z,63.49
2022-08-04T06:10:08.381Z,63.16
2022-08-04T06:11:08.356Z,62.20
2022-08-04T06:12:08.348Z,60.10
2022-08-04T06:13:08.337Z,60.10
2022-08-04T06:14:08.328Z,60.26
2022-08-04T06:15:08.325Z,60.91
2022-08-04T06:16:09.828Z,59.62
2022-08-04T06:18:33.263Z,60.42
2022-08-04T06:18:33.465Z,59.46
2022-08-04T06:20:00.685Z,59.30
2022-08-04T06:20:19.431Z,58.97
2022-08-04T06:21:15.912Z,59.30
2022-08-04T06:22:09.247Z,59.78
2022-08-04T06:23:08.234Z,60.59
2022-08-04T06:24:08.229Z,59.30
2022-08-04T06:25:08.247Z,58.97
2022-08-04T06:26:08.209Z,58.65
2022-08-04T06:27:08.197Z,59.46
2022-08-04T06:28:08.187Z,60.10
2022-08-04T06:29:08.177Z,59.14
2022-08-04T06:30:08.198Z,59.14
2022-08-04T06:32:27.438Z,58.33
2022-08-04T06:32:27.560Z,58.01
2022-08-04T06:33:09.146Z,59.30
2022-08-04T06:34:08.133Z,58.65
2022-08-04T06:35:08.122Z,58.49
2022-08-04T06:36:08.127Z,58.97
2022-08-04T06:37:42.346Z,58.81
2022-08-04T06:38:08.092Z,59.46
2022-08-04T06:39:08.148Z,58.49
2022-08-04T06:40:31.597Z,58.65
2022-08-04T06:41:09.087Z,58.33
2022-08-04T06:42:20.054Z,59.46
2022-08-04T06:43:09.050Z,57.52
2022-08-04T06:44:08.040Z,58.81
2022-08-04T06:45:08.036Z,59.62
2022-08-04T06:46:08.039Z,59.30
2022-08-04T06:47:08.016Z,58.65
2022-08-04T06:48:08.006Z,58.97
2022-08-04T06:49:07.996Z,57.04
2022-08-04T06:51:26.829Z,58.97
2022-08-04T06:51:29.581Z,54.95
2022-08-04T06:52:08.956Z,57.69
2022-08-04T06:53:08.958Z,59.14
2022-08-04T06:54:07.948Z,57.04
2022-08-04T06:55:07.944Z,58.01
2022-08-04T06:56:07.950Z,58.81
2022-08-04T06:57:07.921Z,55.43
2022-08-04T06:58:08.514Z,55.91
2022-08-04T06:59:07.908Z,54.95
2022-08-04T07:00:07.896Z,58.97
2022-08-04T07:01:07.947Z,58.49
2022-08-04T07:02:07.939Z,54.95
2022-08-04T07:03:07.869Z,59.62
2022-08-04T07:04:07.852Z,59.30
2022-08-04T07:05:08.040Z,58.33
2022-08-04T07:06:14.205Z,57.69
2022-08-04T07:07:08.824Z,57.04
2022-08-04T07:08:07.814Z,57.85
2022-08-04T07:09:07.824Z,56.88
2022-08-04T07:10:07.798Z,54.79
2022-08-04T07:11:07.831Z,58.49
2022-08-04T07:12:07.782Z,58.17
2022-08-04T07:13:07.774Z,58.81
2022-08-04T07:14:07.764Z,58.17
2022-08-04T07:15:07.773Z,58.65
2022-08-04T07:16:07.745Z,54.14
2022-08-04T07:17:07.759Z,54.46
2022-08-04T07:18:07.742Z,58.97
2022-08-04T07:19:10.305Z,58.97
2022-08-04T07:20:07.712Z,57.69
2022-08-04T07:21:07.702Z,58.01
2022-08-04T07:22:17.985Z,56.40
2022-08-04T07:23:08.685Z,57.69
2022-08-04T07:24:07.690Z,56.56
2022-08-04T07:25:12.388Z,58.33
2022-08-04T07:26:12.740Z,57.04
2022-08-04T07:27:07.662Z,58.01
2022-08-04T07:28:07.636Z,56.72
2022-08-04T07:29:07.625Z,59.46
2022-08-04T07:30:07.695Z,57.20
2022-08-04T07:31:07.610Z,56.88
2022-08-04T07:32:07.612Z,59.46
2022-08-04T07:33:07.591Z,56.24
2022-08-04T07:34:11.587Z,55.11
2022-08-04T07:35:08.579Z,57.69
2022-08-04T07:36:11.574Z,59.62
2022-08-04T07:37:07.597Z,57.52
2022-08-04T07:38:09.581Z,56.40
2022-08-04T07:39:07.589Z,58.65
2022-08-04T07:40:07.528Z,59.62
2022-08-04T07:42:09.538Z,54.30
2022-08-04T07:43:07.498Z,57.85
2022-08-04T07:44:07.537Z,56.88
2022-08-04T07:45:08.045Z,57.69
2022-08-04T07:46:07.518Z,58.01
2022-08-04T07:47:07.480Z,58.33
2022-08-04T07:48:07.469Z,58.01
2022-08-04T07:49:07.463Z,57.04
2022-08-04T07:50:07.444Z,58.97
2022-08-04T07:51:07.429Z,59.14
2022-08-04T07:52:07.436Z,58.81
2022-08-04T07:53:54.678Z,59.78
2022-08-04T07:54:09.405Z,58.81
2022-08-04T07:55:07.392Z,53.66
2022-08-04T07:56:07.376Z,58.81
2022-08-04T07:57:07.398Z,57.85
2022-08-04T07:58:07.372Z,58.49
2022-08-04T07:59:07.346Z,55.91
2022-08-04T08:00:07.338Z,58.81
2022-08-04T08:01:07.329Z,56.88
2022-08-04T08:02:07.339Z,59.30
2022-08-04T08:03:07.381Z,58.65
2022-08-04T08:04:07.302Z,58.33
2022-08-04T08:05:07.295Z,58.01
2022-08-04T08:06:31.574Z,58.49
2022-08-04T08:07:08.317Z,58.17
2022-08-04T08:08:07.264Z,57.36
2022-08-04T08:09:13.745Z,55.59
2022-08-04T08:10:08.242Z,59.62
2022-08-04T08:11:07.239Z,59.62
2022-08-04T08:12:36.637Z,58.01
2022-08-04T08:13:08.231Z,58.97
2022-08-04T08:14:07.214Z,59.62
2022-08-04T08:15:07.204Z,58.97
2022-08-04T08:16:07.194Z,58.01
2022-08-04T08:17:07.186Z,58.65
2022-08-04T08:18:07.190Z,57.36
2022-08-04T08:19:07.189Z,58.81
2022-08-04T08:20:07.155Z,55.75
2022-08-04T08:21:07.149Z,59.94
2022-08-04T08:22:07.140Z,59.78
2022-08-04T08:23:07.149Z,58.17
2022-08-04T08:24:12.660Z,60.10
2022-08-04T08:25:09.119Z,59.62
2022-08-04T08:26:07.102Z,57.69
2022-08-04T08:27:07.125Z,55.27
2022-08-04T08:28:07.102Z,60.59
2022-08-04T08:29:07.073Z,59.78
2022-08-04T08:30:07.069Z,57.52
2022-08-04T08:31:07.300Z,54.95
2022-08-04T08:32:08.949Z,54.95
2022-08-04T08:33:08.333Z,57.20
2022-08-04T08:34:07.029Z,57.04
2022-08-04T08:35:07.030Z,53.82
2022-08-04T08:36:07.007Z,53.82
2022-08-04T08:37:07.014Z,55.91
2022-08-04T08:38:07.052Z,58.49
2022-08-04T08:39:07.035Z,58.65
2022-08-04T08:40:06.973Z,58.49
2022-08-04T08:41:06.969Z,58.81
2022-08-04T08:42:06.962Z,55.27
2022-08-04T08:44:04.612Z,53.33
2022-08-04T08:44:08.972Z,54.95
2022-08-04T08:45:08.977Z,52.85
2022-08-04T08:46:06.924Z,55.43
2022-08-04T08:47:06.910Z,57.69
2022-08-04T08:48:07.047Z,57.85
2022-08-04T08:49:07.913Z,56.40
2022-08-04T08:50:06.886Z,49.79
2022-08-04T08:51:06.876Z,51.72
2022-08-04T08:52:07.125Z,53.17
2022-08-04T08:53:06.863Z,55.11
2022-08-04T08:54:06.863Z,55.11
2022-08-04T08:55:06.832Z,53.50
2022-08-04T08:56:06.824Z,53.33
2022-08-04T08:57:06.842Z,53.17
2022-08-04T08:58:06.806Z,53.01
2022-08-04T08:59:06.829Z,52.69
2022-08-04T09:00:07.790Z,51.88
2022-08-04T09:01:06.856Z,56.40
2022-08-04T09:02:06.779Z,57.20
2022-08-04T09:03:06.762Z,56.72
2022-08-04T09:04:06.771Z,55.11
2022-08-04T09:05:06.744Z,54.46
2022-08-04T09:06:06.754Z,55.27
2022-08-04T09:07:06.752Z,54.79
2022-08-04T09:08:06.756Z,56.56
2022-08-04T09:09:06.727Z,56.72
2022-08-04T09:10:06.706Z,57.85
2022-08-04T09:11:06.694Z,57.52
2022-08-04T09:12:06.686Z,58.33
2022-08-04T09:13:06.682Z,59.62
2022-08-04T09:14:06.711Z,59.78
2022-08-04T09:15:06.659Z,60.59
2022-08-04T09:16:06.682Z,59.14
2022-08-04T09:17:06.641Z,58.65
2022-08-04T09:18:06.631Z,59.14
2022-08-04T09:19:06.612Z,56.88
2022-08-04T09:20:07.665Z,57.85
2022-08-04T09:21:06.601Z,58.65
2022-08-04T09:22:10.722Z,58.33
2022-08-04T09:23:08.589Z,56.56
2022-08-04T09:24:36.239Z,58.01
2022-08-04T09:25:07.583Z,56.40
2022-08-04T09:26:06.557Z,58.01
2022-08-04T09:27:06.547Z,57.69
2022-08-04T09:28:09.490Z,58.33
2022-08-04T09:29:06.549Z,57.52
2022-08-04T09:30:07.484Z,55.59
2022-08-04T09:31:06.517Z,57.85
2022-08-04T09:32:07.731Z,59.46
2022-08-04T09:33:06.497Z,59.30
2022-08-04T09:34:06.509Z,57.69
2022-08-04T09:35:09.519Z,56.56
2022-08-04T09:36:07.467Z,59.30
2022-08-04T09:37:06.458Z,58.49
2022-08-04T09:38:06.500Z,59.78
2022-08-04T09:39:06.498Z,58.65
2022-08-04T09:40:06.542Z,59.14
2022-08-04T09:41:33.898Z,53.82
2022-08-04T09:42:07.414Z,58.01
2022-08-04T09:43:06.402Z,58.65
2022-08-04T09:44:52.373Z,56.07
2022-08-04T09:45:07.400Z,56.88
2022-08-04T09:46:06.378Z,57.36
2022-08-04T09:47:06.368Z,60.10
2022-08-04T09:48:06.367Z,56.40
2022-08-04T09:49:06.348Z,60.10
2022-08-04T09:50:06.370Z,58.97
2022-08-04T09:51:06.327Z,58.01
2022-08-04T09:52:06.329Z,58.01
2022-08-04T09:53:06.311Z,58.49
2022-08-04T09:54:06.307Z,58.33
2022-08-04T09:55:06.317Z,59.14
2022-08-04T09:56:06.281Z,58.65
2022-08-04T09:57:06.275Z,58.97
2022-08-04T09:58:06.298Z,57.20
2022-08-04T09:59:06.258Z,58.01
2022-08-04T10:00:06.289Z,59.30
2022-08-04T10:01:06.240Z,59.14
2022-08-04T10:02:06.231Z,59.46
2022-08-04T10:03:06.258Z,58.33
2022-08-04T10:04:06.208Z,58.01
2022-08-04T10:05:07.230Z,58.65
2022-08-04T10:06:06.190Z,58.65
2022-08-04T10:07:06.190Z,59.46
2022-08-04T10:08:15.318Z,59.14
2022-08-04T10:09:07.163Z,56.72
2022-08-04T10:10:06.163Z,56.24
2022-08-04T10:11:06.180Z,57.04
2022-08-04T10:12:06.139Z,56.56
2022-08-04T10:13:06.134Z,58.33
2022-08-04T10:14:06.116Z,56.72
2022-08-04T10:15:06.113Z,56.56
2022-08-04T10:16:06.117Z,59.30
2022-08-04T10:17:06.093Z,58.33
2022-08-04T10:18:06.089Z,58.65
2022-08-04T10:19:08.293Z,57.52
2022-08-04T10:20:06.113Z,58.97
2022-08-04T10:21:11.637Z,57.52
2022-08-04T10:22:28.774Z,58.01
2022-08-04T10:23:11.535Z,57.69
2022-08-04T10:24:08.065Z,59.46
2022-08-04T10:26:02.693Z,59.46
2022-08-04T10:26:08.533Z,57.69
2022-08-04T10:27:06.039Z,59.14
2022-08-04T10:28:05.990Z,55.91
2022-08-04T10:29:05.982Z,53.33
2022-08-04T10:30:05.979Z,54.62
2022-08-04T10:31:05.994Z,54.95
2022-08-04T10:32:05.959Z,55.11
2022-08-04T10:33:05.949Z,56.24
2022-08-04T10:34:05.956Z,53.66
2022-08-04T10:35:05.962Z,54.79
2022-08-04T10:36:05.956Z,54.79
2022-08-04T10:37:05.946Z,53.66
2022-08-04T10:38:05.896Z,52.85
2022-08-04T10:39:05.912Z,55.43
2022-08-04T10:40:05.905Z,54.95
2022-08-04T10:41:05.876Z,55.27
2022-08-04T10:42:05.878Z,57.52
2022-08-04T10:43:05.851Z,57.85
2022-08-04T10:44:06.841Z,57.20
2022-08-04T10:45:05.833Z,55.43
2022-08-04T10:46:05.819Z,55.43
2022-08-04T10:47:05.831Z,56.56
2022-08-04T10:48:05.799Z,58.01
2022-08-04T10:49:07.793Z,54.79
2022-08-04T10:50:05.787Z,57.69
2022-08-04T10:51:05.779Z,56.56
2022-08-04T10:52:05.779Z,57.85
2022-08-04T10:53:05.760Z,55.59
2022-08-04T10:54:05.771Z,57.04
2022-08-04T10:55:05.737Z,57.69
2022-08-04T10:56:08.829Z,58.17
2022-08-04T10:57:05.756Z,58.65
2022-08-04T10:58:05.726Z,69.29
2022-08-04T10:59:05.700Z,76.05
2022-08-04T11:00:05.699Z,64.61
2022-08-04T11:01:05.683Z,58.81
2022-08-04T11:02:05.722Z,57.52
2022-08-04T11:03:05.771Z,57.85
2022-08-04T11:04:05.696Z,56.88
2022-08-04T11:05:05.650Z,57.69
2022-08-04T11:06:05.639Z,57.85
2022-08-04T11:07:05.635Z,58.65
2022-08-04T11:08:11.503Z,59.14
2022-08-04T11:09:13.932Z,67.35
2022-08-04T11:10:06.676Z,59.78
2022-08-04T11:11:05.596Z,58.33
2022-08-04T11:12:05.590Z,57.85
2022-08-04T11:13:05.620Z,58.65
2022-08-04T11:14:05.574Z,62.84
2022-08-04T11:15:05.590Z,65.74
2022-08-04T11:16:05.557Z,60.26
2022-08-04T11:17:05.562Z,58.97
2022-08-04T11:18:06.693Z,57.69
2022-08-04T11:19:06.532Z,55.43
2022-08-04T11:20:32.205Z,57.52
2022-08-04T11:21:07.519Z,60.26
2022-08-04T11:22:07.589Z,68.64
2022-08-04T11:23:05.531Z,60.59
2022-08-04T11:24:05.486Z,58.65
2022-08-04T11:25:05.496Z,57.85
2022-08-04T11:26:05.469Z,56.24
2022-08-04T11:27:05.461Z,56.88
2022-08-04T11:28:05.457Z,58.17
2022-08-04T11:29:05.478Z,57.52
2022-08-04T11:30:05.442Z,58.49
2022-08-04T11:31:05.429Z,60.75
2022-08-04T11:32:05.422Z,65.74
2022-08-04T11:33:05.411Z,61.87
2022-08-04T11:34:05.425Z,59.14
2022-08-04T11:35:05.391Z,59.14
2022-08-04T11:36:05.384Z,58.17
2022-08-04T11:37:05.375Z,58.33
2022-08-04T11:38:07.077Z,63.81
2022-08-04T11:39:05.489Z,73.80
2022-08-04T11:40:05.359Z,62.68
2022-08-04T11:41:05.346Z,57.85
2022-08-04T11:42:05.343Z,56.24
2022-08-04T11:43:05.327Z,58.17
2022-08-04T11:44:09.206Z,65.26
2022-08-04T11:45:07.309Z,59.30
2022-08-04T11:46:05.306Z,58.17
2022-08-04T11:47:05.296Z,57.36
2022-08-04T11:48:05.294Z,58.33
2022-08-04T11:49:05.312Z,57.36
2022-08-04T11:50:05.277Z,57.52
2022-08-04T11:51:06.675Z,68.16
2022-08-04T11:52:05.253Z,59.14
2022-08-04T11:53:05.249Z,58.17
2022-08-04T11:54:05.251Z,57.36
2022-08-04T11:55:05.235Z,60.10
2022-08-04T11:56:07.714Z,67.68
2022-08-04T11:57:05.217Z,58.97
2022-08-04T11:58:05.205Z,55.59
2022-08-04T11:59:05.290Z,54.95
2022-08-04T12:00:07.576Z,58.49
2022-08-04T12:01:05.183Z,64.78
2022-08-04T12:02:05.251Z,58.33
2022-08-04T12:03:05.173Z,56.24
2022-08-04T12:04:05.190Z,57.20
2022-08-04T12:05:05.155Z,57.69
2022-08-04T12:06:05.143Z,58.49
2022-08-04T12:07:28.922Z,58.81
2022-08-04T12:08:07.127Z,61.55
2022-08-04T12:09:05.118Z,58.49
2022-08-04T12:10:05.127Z,54.62
2022-08-04T12:11:05.116Z,56.56
2022-08-04T12:12:05.118Z,58.97
2022-08-04T12:13:05.085Z,61.39
2022-08-04T12:14:05.077Z,58.01
2022-08-04T12:15:05.089Z,58.97
2022-08-04T12:16:05.060Z,59.14
2022-08-04T12:17:05.059Z,56.88
2022-08-04T12:18:05.044Z,57.20
2022-08-04T12:19:05.035Z,57.20
2022-08-04T12:20:31.639Z,58.49
2022-08-04T12:21:07.019Z,58.01
2022-08-04T12:22:05.010Z,56.72
2022-08-04T12:23:05.436Z,54.30
2022-08-04T12:24:04.995Z,57.04
2022-08-04T12:25:04.989Z,55.43
2022-08-04T12:26:05.046Z,53.82
2022-08-04T12:27:05.983Z,53.98
2022-08-04T12:28:04.983Z,55.59
2022-08-04T12:29:12.029Z,53.17
2022-08-04T12:31:02.610Z,56.56
2022-08-04T12:31:11.181Z,53.82
2022-08-04T12:32:06.925Z,55.43
2022-08-04T12:33:04.916Z,56.40
2022-08-04T12:34:06.657Z,55.27
2022-08-04T12:35:05.898Z,53.98
2022-08-04T12:36:11.373Z,54.62
2022-08-04T12:37:05.886Z,56.72
2022-08-04T12:38:04.883Z,56.07
2022-08-04T12:39:04.933Z,54.62
2022-08-04T12:40:27.806Z,51.56
2022-08-04T12:41:05.881Z,56.56
2022-08-04T12:42:04.840Z,53.01
2022-08-04T12:43:04.876Z,58.17
2022-08-04T12:44:04.825Z,54.62
2022-08-04T12:45:04.819Z,53.82
2022-08-04T12:46:04.805Z,58.17
2022-08-04T12:47:26.446Z,56.72
2022-08-04T12:48:05.787Z,55.43
2022-08-04T12:49:04.784Z,51.56
2022-08-04T12:50:04.792Z,54.14
2022-08-04T12:51:04.768Z,54.62
2022-08-04T12:52:08.602Z,55.43
2022-08-04T12:53:04.771Z,56.56